Latest Coastal Weather Observations for Devonport Airport

IDT60701

Issued at 4:11 am EST Tuesday 7 July 2015 (issued every 10 minutes, with the page automatically refreshed every 10 minutes)

About coastal observations | Map of coastal stations | Coastal observations for TAS | Marine services | Other Formats
Station Details ID: 091126 Name: DEVONPORT AIRPORT Lat: -41.17 Lon: 146.43 Height: 8.0 m
Data from the previous 72 hours. | See also: Recent months at Devonport Airport
Date/Time
EST
Temp

°C
Wind Pressure Rain
since 9am
mm
Weather Cloud Vis
km
Sea
Height
m
Swell
Dir
 
Speed
knots
Gust
knots
hPa Trend Height
m
Period
s
Dir
07/04:00am 1.0 SSE 9 11 1022.1 - 0.0 - - 10 - - - -
07/03:30am 1.2 SSE 7 9 1022.2 - 0.0 - - 10 - - - -
07/03:00am 1.5 S 8 11 1022.3 - 0.0 - - 10 - - - -
07/02:30am 1.7 SSE 8 11 1022.1 - 0.0 - - 10 - - - -
07/02:00am 1.2 S 4 5 1021.9 - 0.0 - - 10 - - - -
07/01:30am 0.9 SSE 7 8 1021.7 - 0.0 - - 10 - - - -
07/01:00am 2.1 S 9 11 1021.3 - 0.0 - - 10 - - - -
07/12:30am 2.3 S 11 13 1021.2 - 0.0 - - 10 - - - -
07/12:00am 2.6 S 11 14 1021.2 - 0.0 - - 10 - - - -
 
Date/Time
EST
Temp

°C
Wind Pressure Rain
since 9am
mm
Weather Cloud Vis
km
Sea
Height
m
Swell
Dir
 
Speed
knots
Gust
knots
hPa Trend Height
m
Period
s
Dir
06/11:30pm 2.9 SSE 9 10 1021.3 - 0.0 - - 10 - - - -
06/11:00pm 4.1 SSE 13 17 1021.0 - 0.0 - - 10 - - - -
06/10:30pm 4.6 SE 14 19 1020.7 - 0.0 - - 10 - - - -
06/10:00pm 4.3 SSE 14 17 1020.6 - 0.0 - - 10 - - - -
06/09:30pm 4.5 SSE 13 17 1020.3 - 0.0 - - 10 - - - -
06/09:00pm 4.7 SSE 12 15 1020.0 - 0.0 - Mostly clear 10 - - - -
06/08:30pm 5.1 SSE 13 16 1019.7 - 0.0 - - 10 - - - -
06/08:00pm 5.2 SSE 12 15 1019.2 - 0.0 - - 10 - - - -
06/07:30pm 6.0 SE 13 16 1018.8 - 0.0 - - 10 - - - -
06/07:00pm 6.2 SE 14 18 1018.3 - 0.0 - - 10 - - - -
06/06:30pm 7.0 SE 17 22 1017.7 - 0.0 - Partly cloudy 10 - - - -
06/06:00pm 7.7 SE 17 19 1017.3 - 0.0 - Cloudy 10 - - - -
06/05:30pm 8.2 SE 15 20 1016.8 - 0.0 - Cloudy 10 - - - -
06/05:00pm 8.2 SE 15 19 1016.6 - 0.0 - Cloudy 10 - - - -
06/04:30pm 8.7 SE 17 21 1016.2 - 0.0 - Cloudy 10 - - - -
06/04:00pm 9.3 SE 14 18 1016.0 - 0.0 - Partly cloudy 10 - - - -
06/03:30pm 9.7 SE 14 17 1015.8 - 0.0 - Cloudy 10 - - - -
06/03:00pm 9.8 SE 13 18 1015.4 - 0.0 - Cloudy 10 - - - -
06/02:30pm 9.8 SE 11 14 1015.1 - 0.0 - Cloudy 10 - - - -
06/02:00pm 9.6 SE 11 14 1015.0 - 0.0 - Cloudy 10 - - - -
06/01:30pm 9.5 SE 14 19 1015.0 - 0.0 - Cloudy 10 - - - -
06/01:00pm 9.8 SE 13 16 1014.9 - 0.0 - Cloudy 10 - - - -
06/12:30pm 9.4 SE 11 15 1015.0 - 0.0 - Partly cloudy 10 - - - -
06/12:00pm 9.2 SE 15 21 1015.0 - 0.0 - Cloudy 10 - - - -
06/11:30am 8.4 SSE 13 19 1015.2 - 0.0 - Partly cloudy 10 - - - -
06/11:00am 8.7 SE 14 17 1015.3 - 0.0 - Partly cloudy 10 - - - -
06/10:30am 8.5 SSE 14 19 1015.2 - 0.0 - Cloudy 10 - - - -
06/10:00am 8.8 SSE 15 19 1014.9 - 0.0 - Cloudy 10 - - - -
06/09:30am 8.2 SSE 15 20 1014.9 - 0.0 - Cloudy 10 - - - -
06/09:00am 7.8 SSE 16 20 1014.7 - 21.4 - Cloudy 10 - - - -
06/08:30am 7.7 SSE 14 17 1014.4 - 21.4 - Cloudy 10 - - - -
06/08:00am 7.6 SSE 14 18 1014.0 - 21.4 - Cloudy 10 - - - -
06/07:30am 7.5 SSE 14 17 1013.9 - 21.4 - Partly cloudy 10 - - - -
06/07:00am 7.6 SSE 14 19 1013.6 - 21.2 - Partly cloudy 10 - - - -
06/06:33am 7.5 SSE 12 17 1013.4 - 21.2 - Cloudy 10 - - - -
06/06:30am 7.5 SSE 12 15 1013.4 - 21.2 - Cloudy 10 - - - -
06/06:00am 7.5 SSE 13 18 1013.2 - 21.2 - Cloudy 10 - - - -
06/05:30am 7.6 SSE 13 16 1013.2 - 21.2 - Cloudy 10 - - - -
06/05:00am 7.7 SSE 12 15 1013.1 - 21.2 - Cloudy 10 - - - -
06/04:37am 7.5 S 10 13 1013.2 - 21.2 - Cloudy 10 - - - -
06/04:30am 7.5 SSE 11 14 1013.1 - 21.2 - Cloudy 10 - - - -
06/04:00am 7.6 S 10 12 1013.1 - 21.2 - Cloudy 10 - - - -
06/03:30am 7.8 S 8 11 1013.3 - 21.2 - Cloudy 10 - - - -
06/03:00am 7.8 S 8 10 1013.3 - 21.2 - Cloudy 10 - - - -
06/02:30am 7.9 S 10 13 1013.2 - 21.2 - Cloudy 10 - - - -
06/02:00am 8.1 S 9 12 1013.5 - 21.2 - Cloudy 10 - - - -
06/01:43am 8.1 SSE 11 14 1013.4 - 21.2 - Cloudy 10 - - - -
06/01:30am 8.0 SSE 10 14 1013.2 - 21.2 - Cloudy 10 - - - -
06/01:16am 8.1 SSE 9 11 1013.5 - 21.2 - Cloudy 9 - - - -
06/01:03am 8.1 SSE 10 14 1013.6 - 21.2 - Cloudy 6 - - - -
06/01:00am 8.1 SSE 11 14 1013.6 - 21.0 - Cloudy 7 - - - -
06/12:46am 8.2 SSE 12 15 1013.6 - 21.0 - Partly cloudy 10 - - - -
06/12:34am 8.1 SE 13 18 1013.5 - 20.8 - Partly cloudy 6 - - - -
06/12:30am 8.2 SSE 13 18 1013.5 - 20.8 - Partly cloudy 10 - - - -
06/12:00am 8.3 SSE 11 13 1013.6 - 20.6 Rain Cloudy 9 - - - -
 
Date/Time
EST
Temp

°C
Wind Pressure Rain
since 9am
mm
Weather Cloud Vis
km
Sea
Height
m
Swell
Dir
 
Speed
knots
Gust
knots
hPa Trend Height
m
Period
s
Dir
05/11:30pm 8.4 S 9 10 1013.9 - 19.0 - Partly cloudy 8 - - - -
05/11:27pm 8.5 S 9 10 1014.0 - 18.8 - Partly cloudy 10 - - - -
05/11:00pm 8.6 SSE 9 10 1013.9 - 17.6 - Partly cloudy 10 - - - -
05/10:30pm 8.8 SSE 7 8 1014.0 - 17.2 - Partly cloudy 10 - - - -
05/10:00pm 9.0 SSE 8 11 1014.0 - 15.2 - Partly cloudy 10 - - - -
05/09:30pm 9.2 S 5 7 1014.1 - 14.0 - Cloudy 10 - - - -
05/09:00pm 9.1 SSE 7 8 1014.1 - 13.0 Rain Cloudy 10 - - - -
05/08:30pm 9.3 S 5 6 1014.1 - 12.2 - Partly cloudy 10 - - - -
05/08:00pm 9.4 SSW 6 8 1014.1 - 10.6 - Partly cloudy 10 - - - -
05/07:30pm 9.4 SSW 4 6 1014.0 - 9.8 - Partly cloudy 10 - - - -
05/07:00pm 9.4 S 5 6 1013.7 - 8.8 - Partly cloudy 10 - - - -
05/06:30pm 9.5 S 6 8 1013.5 - 8.2 - Partly cloudy 10 - - - -
05/06:00pm 9.6 SSW 6 7 1013.6 - 8.2 Rain Cloudy 10 - - - -
05/05:30pm 9.8 S 5 7 1013.2 - 7.8 - Partly cloudy 10 - - - -
05/05:29pm 9.8 S 5 7 1013.2 - 7.8 - Partly cloudy 10 - - - -
05/05:04pm 9.9 S 6 7 1013.1 - 6.6 - Partly cloudy 10 - - - -
05/05:00pm 9.9 S 6 8 1013.1 - 6.6 - Partly cloudy 10 - - - -
05/04:46pm 10.0 SSW 7 8 1013.0 - 6.4 - Cloudy 6 - - - -
05/04:30pm 10.2 S 4 8 1013.1 - 6.0 - Cloudy 10 - - - -
05/04:12pm 10.2 CALM 0 0 1013.2 - 6.0 - Cloudy 8 - - - -
05/04:00pm 10.2 CALM 0 0 1013.2 - 5.8 - Cloudy 5 - - - -
05/03:30pm 10.1 SE 2 4 1013.1 - 4.4 - Cloudy 4 - - - -
05/03:22pm 10.3 CALM 0 3 1013.1 - 4.0 - Cloudy 6 - - - -
05/03:00pm 10.2 CALM 0 0 1013.0 - 3.8 Rain Mostly cloudy 9 - - - -
05/02:30pm 10.4 CALM 0 3 1013.1 - 3.6 - Cloudy 10 - - - -
05/02:10pm 10.6 W 2 3 1013.2 - 3.6 - Partly cloudy 7 - - - -
05/02:00pm 10.4 W 2 3 1013.2 - 3.6 - Partly cloudy 10 - - - -
05/01:55pm 10.4 W 2 3 1013.2 - 3.6 - Partly cloudy 10 - - - -
05/01:30pm 10.2 S 3 5 1013.3 - 3.6 - Cloudy 10 - - - -
05/01:00pm 10.0 S 7 9 1013.4 - 3.6 - Cloudy 10 - - - -
05/12:30pm 9.4 S 7 9 1013.6 - 3.6 - Cloudy 10 - - - -
05/12:00pm 8.9 S 8 11 1013.8 - 3.6 Drizzle Cloudy 10 - - - -
05/11:30am 8.7 S 8 11 1014.1 - 3.6 - Partly cloudy 10 - - - -
05/11:00am 8.2 S 9 11 1014.5 - 3.2 - Partly cloudy 10 - - - -
05/10:30am 7.9 SSW 6 8 1014.7 - 2.8 - Partly cloudy 8 - - - -
05/10:07am 7.8 SSW 7 9 1014.6 - 2.0 - Partly cloudy 10 - - - -
05/10:00am 8.2 S 7 9 1014.7 - 1.8 - Partly cloudy 10 - - - -
05/09:49am 8.2 SSE 8 9 1014.4 - 1.6 - Partly cloudy 10 - - - -
05/09:30am 7.9 SSE 8 10 1014.5 - 1.2 - Partly cloudy 10 - - - -
05/09:29am 7.9 SSE 8 10 1014.5 - 1.2 - Partly cloudy 10 - - - -
05/09:00am 7.5 SSE 7 8 1014.8 - 3.0 Rain Cloudy 8 - - - -
05/08:59am 7.5 SSE 7 8 1014.9 - 3.0 - Partly cloudy 8 - - - -
05/08:52am 7.3 SSE 6 8 1014.9 - 2.6 - Partly cloudy 8 - - - -
05/08:32am 7.2 S 6 7 1015.1 - 1.6 - Cloudy 6 - - - -
05/08:30am 7.2 S 6 7 1015.1 - 1.2 - Cloudy 7 - - - -
05/08:00am 7.2 S 6 7 1015.0 - 0.8 - Cloudy 10 - - - -
05/07:30am 7.3 S 5 6 1014.9 - 0.6 - Partly cloudy 10 - - - -
05/07:00am 7.2 S 5 6 1014.8 - 0.4 - Partly cloudy 10 - - - -
05/06:50am 7.2 SSE 4 5 1014.8 - 0.4 - Partly cloudy 10 - - - -
05/06:43am 7.3 SSE 4 5 1014.8 - 0.4 - Partly cloudy 10 - - - -
05/06:39am 7.3 SSE 5 5 1014.8 - 0.4 - Partly cloudy 10 - - - -
05/06:30am 7.3 SSE 5 6 1014.8 - 0.4 - Partly cloudy 7 - - - -
05/06:09am 7.2 SSE 5 7 1014.9 - 0.2 - Cloudy 6 - - - -
05/06:05am 7.4 S 5 7 1014.9 - 0.2 - Cloudy 9 - - - -
05/06:00am 7.5 S 5 7 1014.9 - 0.2 Drizzle Cloudy 10 - - - -
05/05:30am 7.6 SSE 3 5 1014.8 - 0.2 - Partly cloudy 10 - - - -
05/05:00am 7.6 CALM 0 0 1014.9 - 0.2 - Partly cloudy 10 - - - -
05/04:49am 7.6 CALM 0 0 1014.9 - 0.2 - Partly cloudy 10 - - - -
05/04:32am 7.5 CALM 0 0 1015.1 - 0.2 - Partly cloudy 6 - - - -
05/04:30am 7.5 CALM 0 0 1015.1 - 0.0 - Partly cloudy 7 - - - -
05/04:00am 7.4 SSE 4 5 1015.2 - 0.0 - Cloudy 10 - - - -
05/03:30am 7.2 S 5 5 1015.4 - 0.0 - Partly cloudy 10 - - - -
05/03:00am 7.4 SSW 3 4 1015.7 - 0.0 - Cloudy 10 - - - -
05/02:30am 7.6 WSW 5 5 1015.9 - 0.0 - Partly cloudy 10 - - - -
05/02:00am 7.1 W 3 5 1015.8 - 0.0 - Partly cloudy 10 - - - -
05/01:30am 7.3 WSW 3 4 1015.6 - 0.0 - Partly cloudy 10 - - - -
05/01:00am 7.5 WSW 5 6 1016.1 - 0.0 - Partly cloudy 10 - - - -
05/12:30am 7.2 W 7 9 1016.1 - 0.0 - Partly cloudy 10 - - - -
05/12:00am 6.8 SW 5 5 1016.2 - 0.0 - Cloudy 10 - - - -
 
Date/Time
EST
Temp

°C
Wind Pressure Rain
since 9am
mm
Weather Cloud Vis
km
Sea
Height
m
Swell
Dir
 
Speed
knots
Gust
knots
hPa Trend Height
m
Period
s
Dir
04/11:30pm 7.6 SW 5 6 1016.1 - 0.0 - - 10 - - - -
04/11:00pm 7.3 WSW 7 10 1016.2 - 0.0 - - 10 - - - -
04/10:30pm 7.7 WSW 7 8 1016.2 - 0.0 - - 10 - - - -
04/10:00pm 8.4 SW 7 8 1016.1 - 0.0 - Partly cloudy 10 - - - -
04/09:30pm 7.9 WSW 7 9 1016.2 - 0.0 - - 10 - - - -
04/09:00pm 7.7 WSW 7 9 1016.4 - 0.0 - Cloudy 10 - - - -
04/08:30pm 8.6 WSW 5 8 1016.2 - 0.0 - Cloudy 10 - - - -
04/08:00pm 8.6 W 4 5 1016.2 - 0.0 - Partly cloudy 10 - - - -
04/07:30pm 8.2 W 7 8 1016.0 - 0.0 - Partly cloudy 10 - - - -
04/07:00pm 9.9 W 8 9 1015.9 - 0.0 - Cloudy 10 - - - -
04/06:30pm 10.1 W 11 12 1015.6 - 0.0 - Cloudy 10 - - - -
04/06:00pm 10.2 W 11 13 1015.4 - 0.0 - Cloudy 10 - - - -
04/05:30pm 9.5 W 10 11 1015.0 - 0.0 - Partly cloudy 10 - - - -
04/05:00pm 10.2 W 8 11 1014.8 - 0.0 - - 10 - - - -
04/04:30pm 12.1 WSW 12 16 1014.7 - 0.0 - - 10 - - - -
04/04:00pm 13.1 WSW 14 19 1014.6 - 0.0 - - 10 - - - -
04/03:30pm 13.7 WSW 11 15 1014.5 - 0.0 - - 10 - - - -
04/03:00pm 14.2 W 16 22 1014.1 - 0.0 - Mostly clear 10 - - - -
04/02:30pm 15.3 WSW 12 17 1013.9 - 0.0 - Partly cloudy 10 - - - -
04/02:00pm 14.9 WSW 15 20 1013.7 - 0.0 - - 10 - - - -
04/01:30pm 14.9 WSW 18 26 1013.8 - 0.0 - - 10 - - - -
04/01:00pm 14.7 WSW 17 25 1013.7 - 0.0 - Partly cloudy 10 - - - -
04/12:30pm 13.7 WNW 14 24 1013.9 - 0.0 - Partly cloudy 10 - - - -
04/12:00pm 13.2 WNW 17 21 1013.8 - 0.0 - Partly cloudy 10 - - - -
04/11:30am 13.4 WNW 18 22 1014.3 - 0.0 - Partly cloudy 10 - - - -
04/11:00am 13.2 WNW 19 23 1014.4 - 0.0 - Partly cloudy 10 - - - -
04/10:30am 12.2 WNW 17 22 1014.3 - 0.0 - Partly cloudy 10 - - - -
04/10:00am 12.2 WNW 16 21 1014.3 - 0.0 - Cloudy 10 - - - -
04/09:30am 12.1 WNW 17 20 1014.1 - 0.0 - Partly cloudy 10 - - - -
04/09:00am 12.0 WNW 16 20 1014.2 - 0.0 - Mostly cloudy 10 - - - -
04/08:30am 12.0 WNW 15 19 1014.0 - 0.0 - Cloudy 10 - - - -
04/08:00am 11.7 WNW 14 18 1013.8 - 0.0 - Cloudy 10 - - - -
04/07:30am 11.4 WNW 12 16 1014.0 - 0.0 - Cloudy 10 - - - -
04/07:00am 11.5 WNW 16 21 1014.1 - 0.0 - Partly cloudy 10 - - - -
04/06:32am 11.6 WNW 17 22 1013.9 - 0.0 - Partly cloudy 10 - - - -
04/06:30am 11.6 WNW 17 22 1013.9 - 0.0 - Partly cloudy 10 - - - -
04/06:00am 11.3 WNW 15 19 1013.8 - 0.0 - Cloudy 10 - - - -
04/05:30am 11.3 WNW 19 24 1013.8 - 0.0 - Partly cloudy 9 - - - -
04/05:18am 11.5 WNW 19 24 1013.9 - 0.0 - Partly cloudy 10 - - - -
04/05:00am 11.4 WNW 20 25 1014.1 - 0.0 - Partly cloudy 10 - - - -
04/04:39am 11.1 WNW 20 25 1014.1 - 0.0 - Partly cloudy 10 - - - -
04/04:30am 10.9 WNW 19 24 1014.1 - 0.0 - Partly cloudy 10 - - - -
04/04:12am 10.7 WNW 19 25 1014.3 - 0.0 - Partly cloudy 10 - - - -

Other Formats:

Comma delimited format used in spreadsheet applications
http://www.bom.gov.au/fwo/IDT60701/IDT60701.95960.axf

JavaScript Object Notation format (JSON) in row-major order
http://www.bom.gov.au/fwo/IDT60701/IDT60701.95960.json